Open Full Screen Window  High Contrast Mode
Wind Gusting 23 knots
16
November 21, 2017 12:56 PM CST
Weather Information
Wind Direction
  230 °
Wind Speed
  16 kt (18 mph)
Wind Gust
  23 kt (26 mph)
Altimeter
29.86 in
Visibility
10 SM
Temperature
11° C
52° F
Dewpoint
01° C
34° F
Humidity
50%
Sky Condition
Clear
VFR

METAR KAXV 211856Z AUTO 23016G23KT 10SM CLR 11/01 A2986 RMK AO2

*Background is not an actual portrayal of the airport.